Airport View

Enter AWOS ICAO identifier for current METAR.

ex. KFNL

KGXY 112156Z AUTO 30004KT 10SM CLR 00/M04 A2995 RMK AO2 SLP190 T00001039 FZRANO

11 Dec 2019 22:47

Frequency: 135.175

Phone: 970-352-3511

Other Area AWOS: KFNL - KLMO - KEIK - KDEN

TAF AMD KDEN 112101Z 1121/1224 01007KT P6SM SCT150 BKN220 FM120100 23005KT P6SM SCT100 BKN150 FM120500 19007KT P6SM SCT150 FM122100 26009KT P6SM SCT080 BKN120